Time;durP1;ratioP1;P1;durP2;ratioP2;P2;SDS_P1;SDS_P2;PMS_P1;PMS_P2;Temp;Humidity;BMP_temperature;BMP_pressure;BME280_temperature;BME280_humidity;BME280_pressure;Samples;Min_cycle;Max_cycle;Signal;HPM_P1;HPM_P2
2023/04/28 00:00:24;;;;;;;1.10;0.60;;;;;;;7.50;48.82;101648.69;4990754;28;20034;-89
2023/04/28 00:02:49;;;;;;;0.73;0.68;;;;;;;7.63;48.82;101676.75;4974722;28;20022;-88
2023/04/28 00:05:15;;;;;;;1.70;1.40;;;;;;;7.58;49.74;101670.84;4990990;28;20038;-89
2023/04/28 00:07:40;;;;;;;2.95;1.30;;;;;;;7.55;49.18;101673.47;4990794;28;20034;-87
2023/04/28 00:10:07;;;;;;;1.73;0.90;;;;;;;7.52;50.01;101681.25;4990790;28;20038;-89
2023/04/28 00:12:32;;;;;;;2.35;1.20;;;;;;;7.40;50.01;101678.94;5006953;28;20038;-89
2023/04/28 00:14:58;;;;;;;1.92;1.05;;;;;;;7.43;49.49;101668.56;4990575;28;20033;-89
2023/04/28 00:17:23;;;;;;;12.55;1.00;;;;;;;7.39;49.87;101677.22;4990846;28;20041;-90
2023/04/28 00:19:49;;;;;;;0.50;0.50;;;;;;;7.29;49.85;101660.28;4974335;28;20093;-88
2023/04/28 00:22:14;;;;;;;2.00;1.38;;;;;;;7.39;49.39;101684.97;4990781;28;20041;-89
2023/04/28 00:24:40;;;;;;;0.98;0.70;;;;;;;7.29;51.11;101673.13;4991006;28;20026;-88
2023/04/28 00:27:06;;;;;;;1.40;1.05;;;;;;;7.29;50.57;101668.00;4989990;28;20037;-89
2023/04/28 00:29:31;;;;;;;1.52;1.02;;;;;;;7.28;50.23;101674.03;4990353;28;20488;-90
2023/04/28 00:31:57;;;;;;;1.13;0.82;;;;;;;7.18;50.64;101673.34;4990571;28;20459;-89
2023/04/28 00:34:22;;;;;;;1.20;0.90;;;;;;;7.26;50.12;101673.16;5023177;28;20423;-89
2023/04/28 00:36:48;;;;;;;1.27;0.80;;;;;;;7.01;50.67;101637.59;4990271;28;20038;-88
2023/04/28 00:39:14;;;;;;;1.02;0.85;;;;;;;7.25;50.55;101674.06;4990225;28;20054;-88
2023/04/28 00:41:40;;;;;;;2.85;0.90;;;;;;;7.21;50.79;101680.16;4973684;28;20417;-88
2023/04/28 00:44:06;;;;;;;1.10;1.00;;;;;;;7.14;51.44;101675.09;4986086;28;20034;-89
2023/04/28 00:46:32;;;;;;;1.67;1.00;;;;;;;7.27;50.81;101688.59;4977494;28;20034;-88
2023/04/28 00:48:57;;;;;;;0.98;0.80;;;;;;;7.22;50.35;101692.13;4976415;28;20034;-89
2023/04/28 00:51:23;;;;;;;4.28;1.05;;;;;;;6.99;51.85;101666.81;4992869;28;20377;-89
2023/04/28 00:53:49;;;;;;;0.80;0.68;;;;;;;7.03;51.09;101684.72;4993301;28;20084;-88
2023/04/28 00:56:15;;;;;;;1.95;1.10;;;;;;;7.09;51.49;101694.94;4993317;28;20038;-89
2023/04/28 00:58:40;;;;;;;0.63;0.60;;;;;;;6.96;52.08;101690.84;4993447;28;20033;-89
2023/04/28 01:01:07;;;;;;;1.15;0.90;;;;;;;7.08;51.23;101692.38;4977354;28;20109;-90
2023/04/28 01:03:34;;;;;;;1.25;0.75;;;;;;;6.97;51.62;101699.41;4993657;28;20034;-90
2023/04/28 01:05:59;;;;;;;1.80;1.23;;;;;;;6.98;51.52;101698.53;4996938;28;20116;-89
2023/04/28 01:08:32;;;;;;;4.15;1.20;;;;;;;7.02;52.19;101710.50;4981153;28;20034;-89
2023/04/28 01:10:57;;;;;;;1.55;1.15;;;;;;;7.04;50.50;101701.88;5013481;28;20120;-88
2023/04/28 01:13:22;;;;;;;1.63;1.13;;;;;;;7.13;51.15;101711.16;5013769;28;20145;-90
2023/04/28 01:15:48;;;;;;;1.70;1.15;;;;;;;7.00;52.01;101715.66;4981000;28;20038;-89
2023/04/28 01:18:13;;;;;;;3.25;1.48;;;;;;;7.11;51.97;101708.63;4997398;28;20026;-87
2023/04/28 01:20:39;;;;;;;2.03;1.23;;;;;;;7.22;52.17;101723.88;4980906;28;20486;-89
2023/04/28 01:23:04;;;;;;;1.85;1.15;;;;;;;7.27;51.32;101719.47;4980919;28;20033;-88
2023/04/28 01:25:30;;;;;;;1.13;0.90;;;;;;;7.16;51.12;101717.09;4996775;28;20034;-89
2023/04/28 01:27:55;;;;;;;0.98;0.73;;;;;;;7.14;50.29;101708.56;4980773;28;20064;-88
2023/04/28 01:30:21;;;;;;;2.00;0.88;;;;;;;7.29;50.80;101732.34;4997450;28;20049;-89
2023/04/28 01:32:46;;;;;;;1.40;1.00;;;;;;;7.14;50.47;101713.69;5013311;28;20041;-89
2023/04/28 01:35:12;;;;;;;1.42;1.23;;;;;;;7.21;50.30;101723.91;4980463;28;20033;-89
2023/04/28 01:37:37;;;;;;;1.98;1.15;;;;;;;7.12;50.69;101730.03;4996956;28;20034;-88
2023/04/28 01:40:03;;;;;;;1.65;0.90;;;;;;;7.07;50.40;101722.38;4980356;28;20046;-89
2023/04/28 01:42:28;;;;;;;1.15;0.73;;;;;;;7.22;50.89;101743.59;5013051;28;20029;-90
2023/04/28 01:44:54;;;;;;;0.85;0.77;;;;;;;7.21;50.29;101739.34;4980451;28;20510;-89
2023/04/28 01:47:19;;;;;;;3.83;1.10;;;;;;;7.11;50.59;101729.19;4996482;28;20492;-88
2023/04/28 01:49:46;;;;;;;1.42;0.90;;;;;;;7.19;50.49;101755.66;5012930;28;20492;-89
2023/04/28 01:52:12;;;;;;;0.65;0.45;;;;;;;7.16;50.95;101741.97;4996933;28;20057;-90
2023/04/28 01:54:37;;;;;;;2.53;1.38;;;;;;;7.17;51.00;101749.66;5012443;28;20045;-88
2023/04/28 01:57:03;;;;;;;1.55;1.15;;;;;;;7.21;51.69;101760.78;5012901;28;20033;-89
2023/04/28 01:59:28;;;;;;;1.58;1.30;;;;;;;7.15;51.25;101756.56;4996556;28;20033;-89
2023/04/28 02:01:54;;;;;;;1.17;0.80;;;;;;;7.19;50.85;101753.09;4996568;28;20029;-88
2023/04/28 02:04:19;;;;;;;3.97;1.50;;;;;;;7.21;51.30;101757.34;4996428;28;20034;-89
2023/04/28 02:06:45;;;;;;;1.38;0.85;;;;;;;7.15;51.69;101759.16;4996126;28;20034;-89
2023/04/28 02:09:10;;;;;;;1.27;0.90;;;;;;;7.22;51.66;101762.47;5012487;28;20030;-88
2023/04/28 02:11:36;;;;;;;1.50;1.10;;;;;;;7.24;51.84;101768.44;4979819;28;20030;-88
2023/04/28 02:14:01;;;;;;;3.13;1.17;;;;;;;7.30;51.87;101780.38;5012517;28;20033;-88
2023/04/28 02:16:27;;;;;;;2.17;1.42;;;;;;;7.10;51.42;101747.25;4995871;28;20033;-88
2023/04/28 02:18:52;;;;;;;1.13;0.88;;;;;;;7.17;51.25;101770.25;5013647;28;20459;-89
2023/04/28 02:21:17;;;;;;;2.90;1.05;;;;;;;6.97;51.94;101743.16;4996055;28;20034;-89
2023/04/28 02:23:43;;;;;;;1.95;1.17;;;;;;;7.16;52.41;101789.16;5011729;28;20026;-88
2023/04/28 02:26:08;;;;;;;2.92;1.20;;;;;;;7.14;52.45;101793.47;4995918;28;20034;-88
2023/04/28 02:28:34;;;;;;;1.95;0.90;;;;;;;6.93;52.92;101780.94;4995930;28;20026;-88
2023/04/28 02:31:17;;;;;;;1.42;0.57;;;;;;;6.75;53.53;101781.22;4995962;28;20025;-88
2023/04/28 02:33:43;;;;;;;1.92;1.20;;;;;;;6.54;53.87;101795.25;5012138;28;20056;-88
2023/04/28 02:36:09;;;;;;;1.10;1.00;;;;;;;6.48;54.40;101787.59;4995714;28;20487;-89
2023/04/28 02:38:34;;;;;;;1.60;1.33;;;;;;;6.42;54.32;101792.84;4995121;28;20061;-89
2023/04/28 02:41:04;;;;;;;1.75;1.20;;;;;;;6.46;53.73;101805.63;4979506;28;20034;-89
2023/04/28 02:43:32;;;;;;;16.73;2.13;;;;;;;5.98;53.90;101741.13;4995437;28;20058;-87
2023/04/28 02:45:58;;;;;;;2.58;1.27;;;;;;;6.34;54.01;101805.78;4995471;28;20053;-89
2023/04/28 02:48:23;;;;;;;1.42;1.20;;;;;;;6.32;53.84;101795.53;4979366;28;20479;-88
2023/04/28 02:50:49;;;;;;;2.20;1.45;;;;;;;6.30;53.65;101799.84;4995407;28;20404;-88
2023/04/28 02:53:15;;;;;;;2.03;1.10;;;;;;;6.19;54.00;101804.22;4994974;28;20053;-88
2023/04/28 02:55:40;;;;;;;1.25;1.15;;;;;;;6.12;54.42;101799.22;4995423;28;20041;-89
2023/04/28 02:58:06;;;;;;;1.40;0.90;;;;;;;6.22;53.87;101811.09;4991013;28;20030;-88
2023/04/28 03:00:31;;;;;;;1.20;1.00;;;;;;;6.11;53.71;101800.94;4992708;28;20030;-88
2023/04/28 03:02:57;;;;;;;2.03;1.30;;;;;;;6.11;53.88;101802.66;4995704;28;20041;-89
2023/04/28 03:05:22;;;;;;;2.05;1.02;;;;;;;5.95;54.35;101769.41;5011797;28;20076;-89
2023/04/28 03:07:48;;;;;;;1.63;1.10;;;;;;;6.14;54.12;101802.59;4993911;28;20030;-88
2023/04/28 03:10:13;;;;;;;3.97;1.52;;;;;;;6.16;53.90;101817.13;4995169;28;20034;-90
2023/04/28 03:12:39;;;;;;;3.47;1.90;;;;;;;6.12;54.21;101814.63;5013047;28;20026;-89
2023/04/28 03:15:07;;;;;;;1.95;1.45;;;;;;;6.02;54.59;101816.44;5011521;28;20026;-88
2023/04/28 03:17:32;;;;;;;2.30;1.55;;;;;;;6.24;54.03;101820.47;4996046;28;20033;-88
2023/04/28 03:19:58;;;;;;;2.45;1.08;;;;;;;6.15;54.10;101836.00;4995451;28;20064;-90
2023/04/28 03:22:23;;;;;;;1.60;0.90;;;;;;;6.16;54.51;101827.41;4994876;28;20026;-90
2023/04/28 03:24:49;;;;;;;1.33;1.15;;;;;;;6.04;53.79;101818.13;4979083;28;20483;-90
2023/04/28 03:27:14;;;;;;;2.15;1.23;;;;;;;5.63;54.33;101766.34;4993758;28;20025;-84
2023/04/28 03:29:40;;;;;;;2.75;0.98;;;;;;;5.79;54.43;101801.22;5010406;28;20030;-85
2023/04/28 03:32:05;;;;;;;1.48;1.10;;;;;;;5.87;54.43;101840.53;4977889;28;20026;-87
2023/04/28 03:34:31;;;;;;;1.92;1.30;;;;;;;5.79;54.79;101815.78;4994783;28;20405;-90
2023/04/28 03:36:56;;;;;;;2.67;1.55;;;;;;;5.89;54.77;101841.38;4994784;28;20027;-92
2023/04/28 03:39:22;;;;;;;2.03;1.27;;;;;;;5.84;54.69;101845.72;5011391;28;20061;-91
2023/04/28 03:41:47;;;;;;;1.50;1.00;;;;;;;5.91;54.93;101849.97;5010191;28;20034;-92
2023/04/28 03:44:12;;;;;;;1.33;1.05;;;;;;;5.98;54.62;101849.00;4994320;28;20506;-92
2023/04/28 03:46:39;;;;;;;2.72;1.58;;;;;;;5.93;54.77;101850.78;4994467;28;20480;-92
2023/04/28 03:49:05;;;;;;;3.78;1.63;;;;;;;6.05;54.91;101852.38;5010742;28;20029;-92
2023/04/28 03:51:31;;;;;;;1.83;1.10;;;;;;;6.01;54.91;101853.28;5010609;28;20040;-91
2023/04/28 03:53:57;;;;;;;1.45;1.10;;;;;;;5.89;55.08;101851.63;5010987;28;20026;-91
2023/04/28 03:56:23;;;;;;;1.65;1.35;;;;;;;5.90;55.02;101861.09;4994604;28;20053;-92
2023/04/28 03:58:48;;;;;;;2.08;1.17;;;;;;;5.88;55.26;101861.94;5004723;28;20081;-92
2023/04/28 04:01:14;;;;;;;2.67;1.65;;;;;;;5.85;55.20;101862.81;4990598;28;20515;-91
2023/04/28 04:03:39;;;;;;;6.45;2.22;;;;;;;5.95;55.14;101879.03;4990384;28;20088;-90
2023/04/28 04:06:05;;;;;;;1.88;1.40;;;;;;;5.79;55.43;101857.72;4985381;28;20042;-92
2023/04/28 04:08:31;;;;;;;2.80;1.75;;;;;;;5.89;55.69;101869.63;5012379;28;20054;-92
2023/04/28 04:10:57;;;;;;;1.73;1.38;;;;;;;5.92;54.83;101872.22;5003477;28;20049;-89
2023/04/28 04:13:22;;;;;;;2.97;1.60;;;;;;;5.96;55.08;101881.56;4973689;28;20031;-88
2023/04/28 04:15:49;;;;;;;3.92;2.55;;;;;;;5.63;54.96;101831.38;4990886;28;20034;-89
2023/04/28 04:18:14;;;;;;;5.70;4.70;;;;;;;5.85;55.27;101873.09;4990753;28;20034;-91
2023/04/28 04:20:40;;;;;;;2.85;2.35;;;;;;;5.90;55.12;101866.25;4983026;28;20503;-88
2023/04/28 04:23:05;;;;;;;1.85;1.15;;;;;;;5.99;54.86;101880.69;4990742;28;20062;-85
2023/04/28 04:25:31;;;;;;;3.08;1.83;;;;;;;6.04;55.21;101881.50;4993257;28;20038;-88
2023/04/28 04:27:57;;;;;;;1.67;1.40;;;;;;;6.06;55.42;101868.63;4989307;28;20026;-83
2023/04/28 04:30:22;;;;;;;2.83;1.45;;;;;;;6.10;55.73;101880.59;4990507;28;20064;-90
2023/04/28 04:32:48;;;;;;;1.65;1.20;;;;;;;6.15;56.48;101865.97;4993589;28;20077;-92
2023/04/28 04:35:13;;;;;;;5.95;1.98;;;;;;;6.26;55.95;101864.97;4974598;28;20030;-92
2023/04/28 04:37:39;;;;;;;4.20;1.80;;;;;;;6.25;56.10;101859.88;4993679;28;20037;-87
2023/04/28 04:40:06;;;;;;;3.40;2.10;;;;;;;6.33;55.79;101858.91;4954782;28;1574649;-92
2023/04/28 04:42:31;;;;;;;4.53;2.50;;;;;;;6.54;54.99;101880.94;5012087;28;20088;-94
2023/04/28 04:44:57;;;;;;;16.02;5.07;;;;;;;6.58;54.68;101876.59;4977526;28;20038;-86
2023/04/28 04:47:22;;;;;;;5.45;2.53;;;;;;;6.65;55.09;101879.94;4992379;28;20038;-90
2023/04/28 04:49:51;;;;;;;8.50;3.85;;;;;;;6.76;55.16;101890.94;4996428;28;20037;-92
2023/04/28 04:52:16;;;;;;;5.32;3.53;;;;;;;6.79;53.32;101875.50;4991352;28;20403;-90
2023/04/28 04:54:42;;;;;;;5.75;3.60;;;;;;;6.85;54.22;101880.53;4993802;28;20034;-85
2023/04/28 04:57:07;;;;;;;4.95;3.47;;;;;;;6.93;53.36;101876.13;5011308;28;20033;-89
2023/04/28 04:59:33;;;;;;;5.35;3.42;;;;;;;7.00;52.41;101885.47;5007848;28;20029;-86
2023/04/28 05:01:58;;;;;;;4.57;3.08;;;;;;;7.12;52.88;101884.44;5017462;28;20037;-89
2023/04/28 05:04:24;;;;;;;5.57;2.92;;;;;;;7.21;52.26;101904.06;5003948;28;20061;-87
2023/04/28 05:06:49;;;;;;;4.30;2.97;;;;;;;7.16;52.89;101881.78;4998407;28;20048;-92
2023/04/28 05:09:15;;;;;;;3.33;2.25;;;;;;;7.43;53.20;101895.13;5030596;28;20036;-85
2023/04/28 05:11:40;;;;;;;3.13;2.00;;;;;;;7.57;52.29;101898.34;5028719;28;20033;-90
2023/04/28 05:14:06;;;;;;;2.90;2.10;;;;;;;7.64;52.93;101899.94;5029821;28;20076;-87
2023/04/28 05:16:31;;;;;;;4.63;2.60;;;;;;;7.64;54.51;101871.59;5028590;28;20034;-88
2023/04/28 05:18:56;;;;;;;3.50;1.88;;;;;;;7.87;53.43;101852.34;5007317;28;20026;-86
2023/04/28 05:21:22;;;;;;;2.85;1.63;;;;;;;7.99;51.43;101885.59;5002879;28;20026;-88
2023/04/28 05:23:47;;;;;;;2.33;1.25;;;;;;;8.08;52.13;101885.44;5007361;28;20092;-88
2023/04/28 05:26:13;;;;;;;4.13;2.20;;;;;;;8.25;52.04;101898.00;4980202;28;20041;-88
2023/04/28 05:28:41;;;;;;;3.13;1.77;;;;;;;8.24;52.12;101894.56;4978760;28;20030;-88
2023/04/28 05:31:07;;;;;;;5.00;2.30;;;;;;;8.27;51.58;101881.63;5010596;28;20478;-87
2023/04/28 05:33:32;;;;;;;1.92;1.48;;;;;;;8.50;52.14;101896.69;5023200;28;20029;-89
2023/04/28 05:35:58;;;;;;;2.08;1.55;;;;;;;8.54;51.30;101902.63;5000908;28;20045;-89
2023/04/28 05:38:24;;;;;;;1.65;1.13;;;;;;;8.45;52.10;101866.69;4994613;28;20037;-86
2023/04/28 05:40:50;;;;;;;1.90;1.30;;;;;;;8.74;52.27;101899.63;5000321;28;20038;-92
2023/04/28 05:43:15;;;;;;;1.58;1.13;;;;;;;8.69;52.15;101881.69;4967270;28;20076;-89
2023/04/28 05:45:40;;;;;;;5.60;4.38;;;;;;;8.94;51.84;101909.53;4984724;28;20036;-89
2023/04/28 05:48:06;;;;;;;1.98;1.45;;;;;;;8.84;52.00;101877.91;4979837;28;20056;-89
2023/04/28 05:50:31;;;;;;;5.38;2.75;;;;;;;9.09;52.48;101889.41;5028913;28;20025;-85
2023/04/28 05:52:57;;;;;;;2.03;1.50;;;;;;;9.33;51.00;101913.78;5018166;28;20040;-87
2023/04/28 05:55:22;;;;;;;1.67;1.42;;;;;;;9.43;50.50;101899.78;5028723;28;20037;-90
2023/04/28 05:57:48;;;;;;;2.25;1.52;;;;;;;9.61;50.17;101905.38;4998921;28;20154;-92
2023/04/28 06:00:13;;;;;;;3.55;1.58;;;;;;;9.78;49.22;101905.81;4999313;28;20040;-93
2023/04/28 06:02:39;;;;;;;2.38;1.65;;;;;;;9.86;48.85;101897.88;5029686;28;20095;-87
2023/04/28 06:05:05;;;;;;;1.95;1.25;;;;;;;10.07;47.63;101902.50;5013340;28;20033;-88
2023/04/28 06:07:30;;;;;;;4.25;1.95;;;;;;;10.15;47.18;101899.72;5000938;28;20033;-88
2023/04/28 06:09:56;;;;;;;6.03;1.40;;;;;;;10.24;47.32;101910.69;5024705;28;20033;-94
2023/04/28 06:12:21;;;;;;;3.35;2.08;;;;;;;10.33;48.05;101900.09;5012514;28;20041;-88
2023/04/28 06:14:47;;;;;;;1.95;1.58;;;;;;;10.48;48.63;101903.97;5019276;28;20536;-90
2023/04/28 06:17:13;;;;;;;2.10;1.38;;;;;;;10.65;48.14;101906.09;5015857;28;20083;-86
2023/04/28 06:19:38;;;;;;;5.47;3.28;;;;;;;10.72;48.18;101881.75;5033020;28;20475;-89
2023/04/28 06:22:04;;;;;;;7.68;2.95;;;;;;;10.88;48.02;101892.47;5030027;28;20032;-85
2023/04/28 06:24:29;;;;;;;2.42;1.63;;;;;;;10.96;47.81;101890.50;5031474;28;20034;-88
2023/04/28 06:26:55;;;;;;;1.90;1.25;;;;;;;11.17;46.01;101909.72;5024540;28;20462;-88
2023/04/28 06:29:22;;;;;;;3.20;1.45;;;;;;;11.14;45.01;101879.56;5006915;28;20030;-89
2023/04/28 06:31:48;;;;;;;2.00;1.23;;;;;;;11.46;44.68;101903.59;5030829;28;20033;-89
2023/04/28 06:34:13;;;;;;;15.23;9.00;;;;;;;11.50;45.21;101900.00;5031480;28;20030;-87
2023/04/28 06:36:39;;;;;;;4.13;2.13;;;;;;;11.75;44.76;101902.66;5013173;28;20037;-92
2023/04/28 06:39:05;;;;;;;4.07;2.25;;;;;;;11.72;41.57;101893.25;5011054;28;20049;-89
2023/04/28 06:41:30;;;;;;;3.70;1.50;;;;;;;11.92;41.61;101899.53;4991310;28;20492;-89
2023/04/28 06:43:56;;;;;;;1.60;1.02;;;;;;;12.02;40.69;101893.97;4962423;28;20483;-93
2023/04/28 06:46:21;;;;;;;2.22;1.30;;;;;;;12.07;39.83;101911.94;5004635;28;20038;-92
2023/04/28 06:48:47;;;;;;;4.97;1.50;;;;;;;12.15;40.41;101906.50;5011809;28;20121;-89
2023/04/28 06:51:13;;;;;;;3.90;2.15;;;;;;;11.99;40.24;101877.66;4995530;28;20521;-93
2023/04/28 06:53:38;;;;;;;2.60;1.40;;;;;;;12.33;39.96;101911.91;5011736;28;20034;-87
2023/04/28 06:56:04;;;;;;;2.17;1.45;;;;;;;12.13;39.44;101893.59;5007234;28;20022;-90
2023/04/28 06:58:30;;;;;;;2.20;1.25;;;;;;;12.04;39.95;101878.34;4993295;28;20034;-85
2023/04/28 07:00:55;;;;;;;2.60;1.35;;;;;;;12.37;41.69;101888.41;5007626;28;20046;-89
2023/04/28 07:03:20;;;;;;;3.03;1.23;;;;;;;12.63;41.09;101906.50;5009645;28;20022;-91
2023/04/28 07:05:46;;;;;;;4.90;3.80;;;;;;;12.72;41.69;101908.75;5008242;28;20061;-90
2023/04/28 07:08:11;;;;;;;1.67;1.27;;;;;;;12.81;40.24;101905.81;4989392;28;20026;-90
2023/04/28 07:10:37;;;;;;;3.75;1.85;;;;;;;12.66;38.75;101892.53;4994747;28;20033;-86
2023/04/28 07:13:02;;;;;;;1.67;1.45;;;;;;;13.06;40.40;101907.44;5012972;28;20037;-88
2023/04/28 07:15:28;;;;;;;3.08;1.73;;;;;;;13.15;37.99;101907.09;4994378;28;20045;-90
2023/04/28 07:17:54;;;;;;;2.00;1.35;;;;;;;13.17;37.54;101905.28;5015680;28;20030;-91
2023/04/28 07:20:19;;;;;;;2.55;1.75;;;;;;;13.31;37.63;101915.16;5010513;28;20083;-93
2023/04/28 07:22:45;;;;;;;4.15;2.08;;;;;;;13.43;37.42;101917.28;4998678;28;20038;-88
2023/04/28 07:25:10;;;;;;;3.78;1.48;;;;;;;13.56;38.58;101912.41;4989336;28;20034;-88
2023/04/28 07:27:36;;;;;;;3.28;1.25;;;;;;;13.40;37.48;101899.22;4991699;28;20041;-87
2023/04/28 07:30:01;;;;;;;2.22;1.60;;;;;;;13.59;37.79;101907.09;5007865;28;20057;-89
2023/04/28 07:32:27;;;;;;;3.10;1.85;;;;;;;13.69;36.72;101908.41;5008239;28;20053;-86
2023/04/28 07:34:52;;;;;;;1.83;1.38;;;;;;;13.41;36.01;101878.34;4991179;28;20030;-93
2023/04/28 07:37:18;;;;;;;2.55;1.70;;;;;;;13.59;36.32;101904.50;5008626;28;20034;-87
2023/04/28 07:39:43;;;;;;;2.15;1.33;;;;;;;13.68;35.41;101919.72;4981304;28;20062;-94
2023/04/28 07:42:09;;;;;;;3.47;1.50;;;;;;;13.66;35.02;101885.13;4987073;28;20068;-88
2023/04/28 07:44:34;;;;;;;2.88;1.20;;;;;;;13.89;35.67;101911.03;4983270;28;20129;-91
2023/04/28 07:47:00;;;;;;;2.65;1.60;;;;;;;14.04;42.06;101910.34;4980955;28;20061;-89
2023/04/28 07:49:27;;;;;;;4.05;1.58;;;;;;;14.37;34.14;101902.00;4983957;28;20058;-88
2023/04/28 07:51:54;;;;;;;2.55;1.25;;;;;;;14.52;34.38;101890.91;5008202;28;20036;-88
2023/04/28 07:54:20;;;;;;;3.40;2.20;;;;;;;14.22;33.65;101874.03;5010352;28;20160;-87
2023/04/28 07:56:45;;;;;;;3.42;1.52;;;;;;;14.35;33.77;101894.28;5010423;28;20108;-89
2023/04/28 07:59:11;;;;;;;2.35;1.48;;;;;;;14.48;34.66;101897.19;5005002;28;20511;-87
2023/04/28 08:01:36;;;;;;;3.05;1.50;;;;;;;14.63;33.79;101880.84;4983180;28;20025;-87
2023/04/28 08:04:02;;;;;;;3.45;1.40;;;;;;;14.87;34.88;101893.69;4988457;28;20029;-87
2023/04/28 08:06:27;;;;;;;2.45;1.60;;;;;;;14.85;33.59;101893.75;5003166;28;20025;-92
2023/04/28 08:08:53;;;;;;;3.15;1.50;;;;;;;15.05;32.90;101889.38;4994959;28;20046;-89
2023/04/28 08:11:20;;;;;;;2.72;1.42;;;;;;;15.23;33.28;101879.78;4979540;28;20041;-87
2023/04/28 08:13:45;;;;;;;2.38;1.52;;;;;;;15.34;33.63;101891.41;5002000;28;20522;-85
2023/04/28 08:16:11;;;;;;;2.38;1.52;;;;;;;15.28;33.31;101894.31;5008874;28;20061;-86
2023/04/28 08:18:37;;;;;;;5.13;1.77;;;;;;;15.04;33.49;101877.22;4992348;28;20466;-87
2023/04/28 08:21:02;;;;;;;3.28;1.75;;;;;;;15.32;33.82;101889.78;5008989;28;20021;-89
2023/04/28 08:23:30;;;;;;;3.80;1.50;;;;;;;15.52;33.63;101884.44;4996390;28;20516;-87
2023/04/28 08:25:56;;;;;;;1.77;1.05;;;;;;;15.62;32.90;101879.63;5004830;28;20431;-91
2023/04/28 08:28:21;;;;;;;2.53;1.55;;;;;;;15.49;32.68;101838.50;4990075;28;20040;-87
2023/04/28 08:30:47;;;;;;;3.22;1.10;;;;;;;15.81;32.74;101872.56;5009263;28;20029;-87
2023/04/28 08:33:12;;;;;;;2.20;1.38;;;;;;;15.96;32.31;101873.56;4990462;28;20388;-89
2023/04/28 08:35:38;;;;;;;5.95;1.98;;;;;;;16.01;31.34;101861.09;5009693;28;20038;-87
2023/04/28 08:38:04;;;;;;;2.78;1.40;;;;;;;16.22;31.85;101874.78;4992222;28;20030;-87
2023/04/28 08:40:30;;;;;;;3.60;1.50;;;;;;;16.27;30.95;101883.25;5008380;28;20060;-86
2023/04/28 08:42:56;;;;;;;3.15;1.90;;;;;;;16.29;31.00;101870.94;5008885;28;20037;-90
2023/04/28 08:45:22;;;;;;;2.97;1.55;;;;;;;16.34;32.11;101875.00;4973086;28;20050;-87
2023/04/28 08:47:48;;;;;;;4.50;1.80;;;;;;;16.54;32.01;101876.53;4996096;28;20029;-91
2023/04/28 08:50:14;;;;;;;4.57;2.40;;;;;;;16.57;31.05;101875.53;4990536;28;20030;-88
2023/04/28 08:52:40;;;;;;;2.58;1.77;;;;;;;16.47;30.47;101863.91;4994114;28;20069;-89
2023/04/28 08:55:08;;;;;;;1.65;1.30;;;;;;;16.34;30.54;101874.16;5009905;28;20026;-91
2023/04/28 08:57:37;;;;;;;3.67;1.33;;;;;;;16.35;30.21;101875.84;5010763;28;20105;-89
2023/04/28 09:00:04;;;;;;;3.35;1.42;;;;;;;16.18;30.55;101832.34;5007503;28;20502;-89
2023/04/28 09:02:29;;;;;;;2.20;1.35;;;;;;;16.52;30.20;101867.13;5017234;28;20073;-94
2023/04/28 09:04:55;;;;;;;4.47;2.30;;;;;;;16.58;30.54;101854.53;4990872;28;20171;-86
2023/04/28 09:07:20;;;;;;;4.25;1.85;;;;;;;16.62;30.08;101865.69;4999583;28;20492;-84
2023/04/28 09:09:46;;;;;;;3.58;2.00;;;;;;;16.67;30.08;101861.03;4992195;28;20034;-85
2023/04/28 09:12:11;;;;;;;2.95;1.90;;;;;;;16.81;30.31;101861.16;5007167;28;20172;-85
2023/04/28 09:14:37;;;;;;;26.67;16.35;;;;;;;16.99;30.53;101867.13;5006787;28;20510;-85
2023/04/28 09:17:09;;;;;;;3.47;1.95;;;;;;;16.96;29.89;101861.22;4992906;28;20057;-85
2023/04/28 09:19:35;;;;;;;2.33;1.55;;;;;;;16.93;30.43;101862.25;5008227;28;20045;-85
2023/04/28 09:22:01;;;;;;;1.85;1.30;;;;;;;16.84;29.34;101834.84;4992344;28;20033;-91
2023/04/28 09:24:40;;;;;;;1.58;1.30;;;;;;;16.99;30.06;101856.66;5002310;28;20037;-86
2023/04/28 09:27:09;;;;;;;2.67;1.73;;;;;;;17.02;30.14;101851.28;5016009;28;20025;-86
2023/04/28 09:29:35;;;;;;;1.80;1.20;;;;;;;16.85;27.81;101839.16;5007276;28;20373;-88
2023/04/28 09:32:14;;;;;;;2.53;1.73;;;;;;;17.07;29.72;101856.25;4993080;28;20034;-86
2023/04/28 09:34:47;;;;;;;2.90;1.65;;;;;;;17.32;29.68;101846.06;4999309;28;20120;-93
2023/04/28 09:37:20;;;;;;;5.47;1.73;;;;;;;17.35;30.37;101848.50;4990327;28;20034;-89
2023/04/28 09:39:46;;;;;;;2.65;1.48;;;;;;;17.32;29.29;101827.75;5005881;28;20058;-88
2023/04/28 09:42:37;;;;;;;13.07;2.58;;;;;;;17.58;29.43;101851.53;5012035;28;20131;-92
2023/04/28 09:45:06;;;;;;;7.13;2.55;;;;;;;17.49;28.12;101827.59;4992001;28;20479;-86
2023/04/28 09:47:33;;;;;;;2.85;1.40;;;;;;;17.46;28.29;101835.63;5002492;28;20034;-88
2023/04/28 09:50:00;;;;;;;2.97;1.63;;;;;;;17.72;27.78;101830.69;5012752;28;20033;-84
2023/04/28 09:52:26;;;;;;;8.57;4.60;;;;;;;17.80;29.91;101828.44;4996585;28;20034;-87
2023/04/28 09:54:53;;;;;;;8.00;5.07;;;;;;;17.83;27.59;101830.88;5012507;28;20033;-92
2023/04/28 09:57:18;;;;;;;4.60;2.28;;;;;;;17.80;27.58;101817.97;4995457;28;20434;-89
2023/04/28 09:59:51;;;;;;;4.47;2.45;;;;;;;17.76;27.91;101809.44;4991882;28;20034;-91
2023/04/28 10:02:17;;;;;;;7.82;3.83;;;;;;;17.96;28.04;101815.25;4996326;28;20021;-91
2023/04/28 10:04:47;;;;;;;4.57;1.88;;;;;;;18.10;27.24;101811.81;4989767;28;20026;-88
2023/04/28 10:07:13;;;;;;;3.63;1.75;;;;;;;18.05;27.69;101788.50;4989529;28;20037;-88
2023/04/28 10:09:42;;;;;;;4.88;2.85;;;;;;;18.16;27.76;101795.69;4995073;28;20399;-93
2023/04/28 10:12:11;;;;;;;4.82;2.42;;;;;;;18.13;28.81;101764.47;5011912;28;20076;-90
2023/04/28 10:14:36;;;;;;;10.07;5.57;;;;;;;18.45;27.50;101783.38;5011798;28;20041;-89
2023/04/28 10:17:03;;;;;;;3.30;1.60;;;;;;;18.59;27.14;101776.34;5008461;28;20688;-87
2023/04/28 10:19:28;;;;;;;5.28;3.38;;;;;;;18.73;27.06;101782.50;5016794;28;20029;-90
2023/04/28 10:22:03;;;;;;;3.78;2.53;;;;;;;18.85;27.66;101779.06;5016315;28;20033;-85
2023/04/28 10:24:29;;;;;;;3.10;1.77;;;;;;;18.97;27.54;101770.38;5018557;28;20030;-87
2023/04/28 10:27:08;;;;;;;3.20;1.50;;;;;;;18.69;26.36;101729.44;4986977;28;20022;-87
2023/04/28 10:29:34;;;;;;;3.28;2.00;;;;;;;19.00;27.12;101746.59;4976507;28;20093;-87
2023/04/28 10:32:18;;;;;;;2.80;1.98;;;;;;;19.25;26.21;101763.31;4972312;28;20054;-90
2023/04/28 10:34:44;;;;;;;2.33;1.60;;;;;;;19.16;26.02;101759.50;4992245;28;20052;-92
2023/04/28 10:37:09;;;;;;;2.90;1.52;;;;;;;19.24;26.34;101745.88;4973192;28;20523;-85
2023/04/28 10:39:35;;;;;;;6.43;1.90;;;;;;;19.17;26.69;101743.69;5006188;28;20085;-89
2023/04/28 10:42:01;;;;;;;2.90;2.03;;;;;;;19.16;26.14;101739.38;5011420;28;20108;-90
2023/04/28 10:44:29;;;;;;;3.28;1.75;;;;;;;19.39;25.67;101731.75;4994578;28;20480;-92
2023/04/28 10:47:08;;;;;;;2.38;1.77;;;;;;;19.34;26.37;101725.94;4993979;28;20050;-89
2023/04/28 10:49:56;;;;;;;2.28;1.52;;;;;;;19.51;25.74;101719.56;4993557;28;20022;-90
2023/04/28 10:52:37;;;;;;;2.92;1.73;;;;;;;19.67;26.77;101720.22;4992832;28;20040;-85
2023/04/28 10:55:38;;;;;;;4.00;2.42;;;;;;;19.73;26.26;101717.13;4991781;28;20026;-85
2023/04/28 10:58:19;;;;;;;6.70;1.48;;;;;;;19.36;26.07;101710.94;5010273;28;20056;-85
2023/04/28 11:00:46;;;;;;;2.60;1.60;;;;;;;19.14;26.66;101693.22;5011124;28;20088;-90
2023/04/28 11:03:46;;;;;;;2.90;1.40;;;;;;;19.22;26.13;101705.81;5014007;28;20030;-95
2023/04/28 11:06:52;;;;;;;2.90;1.52;;;;;;;19.09;26.25;101666.47;4992417;28;20054;-90
2023/04/28 11:09:18;;;;;;;2.92;1.50;;;;;;;19.46;26.08;101704.09;4993140;28;20467;-86
2023/04/28 11:11:58;;;;;;;2.15;1.42;;;;;;;19.43;25.84;101705.16;4992456;28;20030;-89
2023/04/28 11:14:24;;;;;;;2.85;1.65;;;;;;;19.14;26.03;101696.66;5005731;28;20171;-91
2023/04/28 11:16:53;;;;;;;2.67;1.23;;;;;;;19.15;25.92;101684.38;5004005;28;20080;-90
2023/04/28 11:19:27;;;;;;;4.00;1.60;;;;;;;19.29;25.47;101693.97;4992456;28;20030;-93
2023/04/28 11:21:54;;;;;;;2.40;1.50;;;;;;;19.27;26.24;101682.72;5001690;28;20026;-86
2023/04/28 11:24:21;;;;;;;3.50;1.52;;;;;;;19.34;25.79;101683.97;5007818;28;20141;-90
2023/04/28 11:26:47;;;;;;;3.13;1.73;;;;;;;19.41;25.99;101680.00;4982553;28;20038;-88